Rechercher aéroport 
image banner adimage banner adimage banner ad
image banner ad

CN88 - Kaiser Medical Center Vacaville

Situé à Vacaville, United States

ICAO - CN88, IATA -

Données fournies par Airmate  

Information générale

Coordonnées: N38°23'20" W121°56'26"
Élévation : 100 feet MSL.
 
Voir autres Aéroports à California

Données opérationnelles

Special qualification required
Heure actuelle UTC:
Heure actuelle locale:
Météo à : KVCB - Nut Tree ( 2 km )
METAR: KVCB 270353Z AUTO 21011G17KT 10SM CLR 24/06 A2986 RMK AO2 SLP109 T02440056
Voir NOTAMs / SUP AIP / TFR affectant cet aéroport [VIEW]
Fréquences de communication: [VIEW]

Pistes:

Coordonnées de l'aéroport

Adresse: Vacaville United States

Vue satellite de CN88